Time;durP1;ratioP1;P1;durP2;ratioP2;P2;SDS_P1;SDS_P2;PMS_P1;PMS_P2;Temp;Humidity;BMP_temperature;BMP_pressure;BME280_temperature;BME280_humidity;BME280_pressure;Samples;Min_cycle;Max_cycle;Signal;HPM_P1;HPM_P2
2022/08/11 00:00:36;;;;;;;3.90;2.38;;;;;;;19.29;48.92;101889.59;5071666;28;20577;-70
2022/08/11 00:03:08;;;;;;;4.30;2.28;;;;;;;19.43;48.02;101878.91;5084365;28;20122;-70
2022/08/11 00:05:45;;;;;;;3.90;2.30;;;;;;;19.53;48.63;101883.56;5083406;28;20052;-70
2022/08/11 00:08:21;;;;;;;6.25;2.38;;;;;;;19.55;48.59;101884.31;5084275;28;20040;-70
2022/08/11 00:10:52;;;;;;;7.97;2.40;;;;;;;19.35;49.37;101883.88;5084671;28;20040;-70
2022/08/11 00:13:21;;;;;;;7.57;2.80;;;;;;;19.24;49.55;101874.94;5084551;27;20063;-71
2022/08/11 00:15:48;;;;;;;4.13;2.40;;;;;;;19.26;49.63;101879.19;5074276;28;20278;-70
2022/08/11 00:18:16;;;;;;;6.32;2.30;;;;;;;19.10;50.89;101883.88;5083363;27;20040;-70
2022/08/11 00:20:44;;;;;;;5.65;2.30;;;;;;;19.14;50.85;101882.69;5083440;27;20113;-70
2022/08/11 00:23:13;;;;;;;4.65;2.45;;;;;;;18.99;51.00;101886.44;5083647;27;20051;-70
2022/08/11 00:25:43;;;;;;;4.40;2.40;;;;;;;19.00;51.33;101885.47;5084134;27;20044;-70
2022/08/11 00:28:29;;;;;;;5.72;2.60;;;;;;;19.19;51.26;101880.56;5083332;27;20123;-70
2022/08/11 00:30:58;;;;;;;3.88;2.47;;;;;;;19.31;50.90;101886.84;5076381;28;20040;-70
2022/08/11 00:33:33;;;;;;;3.15;2.30;;;;;;;19.27;50.90;101886.22;5083756;28;20044;-70
2022/08/11 00:36:01;;;;;;;7.95;2.10;;;;;;;19.24;50.80;101878.47;5084549;27;20048;-70
2022/08/11 00:38:33;;;;;;;3.92;2.50;;;;;;;19.34;50.49;101874.19;5084829;27;20545;-70
2022/08/11 00:41:10;;;;;;;6.17;2.50;;;;;;;19.30;50.71;101874.50;5083593;28;20499;-70
2022/08/11 00:44:04;;;;;;;3.65;2.40;;;;;;;19.11;51.78;101879.41;5084731;27;20039;-71
2022/08/11 00:46:42;;;;;;;5.97;2.58;;;;;;;19.03;52.05;101879.91;5071630;27;20569;-70
2022/08/11 00:49:15;;;;;;;3.55;2.60;;;;;;;18.97;52.33;101880.34;5076094;28;20044;-70
2022/08/11 00:51:59;;;;;;;4.82;2.85;;;;;;;19.10;52.15;101881.22;5084614;28;20044;-71
2022/08/11 00:55:02;;;;;;;3.63;2.72;;;;;;;19.24;51.69;101875.78;5083891;28;20407;-71
2022/08/11 00:58:05;;;;;;;5.43;2.45;;;;;;;19.34;51.16;101876.00;5085793;28;20112;-71
2022/08/11 01:00:42;;;;;;;;;;;;;;;19.49;50.99;101874.94;5065718;28;20105;-71
2022/08/11 01:03:20;;;;;;;6.32;2.80;;;;;;;19.46;51.14;101876.97;5064768;28;19924;-71
2022/08/11 01:06:06;;;;;;;6.35;2.80;;;;;;;19.47;51.53;101881.34;5091200;28;20036;-71
2022/08/11 01:09:09;;;;;;;12.57;2.90;;;;;;;19.23;51.75;101881.22;5055660;28;20089;-71
2022/08/11 01:12:14;;;;;;;7.03;3.10;;;;;;;18.96;52.91;101883.97;5063945;28;20098;-71
2022/08/11 01:15:19;;;;;;;5.10;2.63;;;;;;;18.93;53.27;101886.84;5073346;28;20637;-71
2022/08/11 01:18:14;;;;;;;6.22;2.67;;;;;;;18.97;52.66;101888.34;5029985;28;20577;-71
2022/08/11 01:21:20;;;;;;;4.30;2.60;;;;;;;19.01;52.77;101888.97;5083096;28;20044;-71
2022/08/11 01:24:29;;;;;;;4.13;2.50;;;;;;;18.84;53.60;101884.81;5016641;28;20079;-71
2022/08/11 01:27:21;;;;;;;7.13;3.85;;;;;;;18.91;53.40;101880.78;5024554;28;20122;-71
2022/08/11 01:30:30;;;;;;;6.00;2.55;;;;;;;18.70;53.80;101874.28;5083548;27;20044;-72
2022/08/11 01:33:19;;;;;;;5.25;2.78;;;;;;;18.63;54.46;101880.94;5063770;28;20109;-72
2022/08/11 01:36:36;;;;;;;3.80;2.60;;;;;;;18.65;54.10;101876.38;5067529;28;20547;-72
2022/08/11 01:39:31;;;;;;;6.28;2.90;;;;;;;18.52;55.01;101880.81;5067598;28;20048;-72
2022/08/11 01:45:37;;;;;;;6.93;3.42;;;;;;;18.49;55.56;101877.38;5087126;28;20051;-72
2022/08/11 01:48:10;;;;;;;5.10;3.30;;;;;;;18.46;55.25;101874.94;5085035;28;20113;-72
2022/08/11 01:51:05;;;;;;;5.25;2.90;;;;;;;18.37;56.04;101878.19;5076957;27;20040;-72
2022/08/11 01:53:44;;;;;;;6.63;3.45;;;;;;;18.37;56.04;101877.34;5075151;27;20427;-72
2022/08/11 01:56:29;;;;;;;10.50;3.70;;;;;;;18.55;55.61;101881.44;5075418;27;20063;-72
2022/08/11 01:59:08;;;;;;;8.07;3.08;;;;;;;18.56;55.92;101884.97;5076660;27;20074;-72
2022/08/11 02:01:43;;;;;;;5.40;3.03;;;;;;;18.54;55.31;101879.78;5084633;28;20126;-72
2022/08/11 02:04:19;;;;;;;4.85;3.25;;;;;;;18.48;55.94;101877.47;5086678;28;20044;-72
2022/08/11 02:06:57;;;;;;;9.07;3.42;;;;;;;18.66;55.26;101876.28;5084248;27;20040;-72
2022/08/11 02:09:40;;;;;;;11.65;3.15;;;;;;;18.66;55.93;101880.75;5085714;28;20047;-72
2022/08/11 02:12:14;;;;;;;4.50;3.67;;;;;;;18.67;55.70;101882.44;5085730;28;20559;-72
2022/08/11 02:14:45;;;;;;;5.80;3.00;;;;;;;18.58;55.76;101878.63;5087172;28;20068;-72
2022/08/11 02:17:18;;;;;;;13.43;3.30;;;;;;;18.48;56.07;101875.66;5087951;28;20415;-72
2022/08/11 02:25:37;;;;;;;6.90;3.00;;;;;;;18.69;55.26;101872.56;5088044;28;20055;-72
2022/08/11 02:28:10;;;;;;;9.50;3.20;;;;;;;18.61;56.24;101872.22;5091339;28;20283;-72
2022/08/11 02:30:42;;;;;;;5.18;3.10;;;;;;;18.56;55.56;101880.50;5087412;27;20445;-72
2022/08/11 02:33:23;;;;;;;7.55;3.20;;;;;;;18.56;55.70;101869.88;5086339;28;20044;-72
2022/08/11 02:36:00;;;;;;;7.77;3.23;;;;;;;18.33;56.70;101881.13;5095245;28;20161;-72
2022/08/11 02:38:35;;;;;;;6.75;3.25;;;;;;;18.51;56.17;101879.97;5102932;27;20048;-72
2022/08/11 02:42:21;;;;;;;4.95;3.10;;;;;;;18.39;57.11;101876.31;5086964;28;20093;-72
2022/08/11 02:44:10;;;;;;;6.50;3.13;;;;;;;18.27;57.02;101874.44;5087416;28;20040;-72
2022/08/11 02:46:49;;;;;;;5.18;3.50;;;;;;;18.10;58.08;101871.19;5073868;28;20055;-72
2022/08/11 02:52:25;;;;;;;6.10;3.40;;;;;;;18.18;58.69;101872.38;5087257;27;20051;-71
2022/08/11 02:55:05;;;;;;;5.70;3.47;;;;;;;18.03;60.36;101868.09;5085901;27;20572;-72
2022/08/11 02:57:38;;;;;;;4.45;3.35;;;;;;;18.12;59.74;101869.28;5081040;28;20540;-72
2022/08/11 03:00:09;;;;;;;7.72;3.47;;;;;;;18.01;60.47;101864.69;5088882;27;20545;-72
2022/08/11 03:02:48;;;;;;;7.95;3.70;;;;;;;17.80;61.62;101869.56;5066771;28;20511;-72
2022/08/11 03:05:23;;;;;;;7.45;3.90;;;;;;;17.79;61.34;101874.97;5085768;28;20418;-72
2022/08/11 03:08:05;;;;;;;7.53;3.70;;;;;;;17.94;61.65;101868.69;5089210;28;20093;-72
2022/08/11 03:10:41;;;;;;;6.60;3.92;;;;;;;18.11;61.33;101873.72;5086682;28;20512;-71
2022/08/11 03:19:11;;;;;;;6.88;3.92;;;;;;;18.07;61.59;101869.56;5068302;28;20073;-71
2022/08/11 03:21:47;;;;;;;5.57;3.50;;;;;;;17.93;62.20;101866.97;5080490;27;20052;-72
2022/08/11 03:24:22;;;;;;;7.25;3.90;;;;;;;17.89;62.23;101866.31;5074422;27;20041;-72
2022/08/11 03:27:03;;;;;;;6.20;4.03;;;;;;;17.95;62.22;101865.09;5082603;27;20040;-72
2022/08/11 03:29:42;;;;;;;4.93;3.30;;;;;;;17.76;63.01;101867.22;5084219;27;20392;-72
2022/08/11 03:32:24;;;;;;;5.63;3.85;;;;;;;17.74;63.42;101872.59;5084242;28;20052;-72
2022/08/11 03:34:51;;;;;;;8.32;3.53;;;;;;;17.65;63.77;101870.56;5073074;28;20070;-72
2022/08/11 03:37:49;;;;;;;7.47;3.38;;;;;;;17.81;63.62;101875.75;5083650;28;20047;-72
2022/08/11 03:43:33;;;;;;;6.25;3.67;;;;;;;18.03;63.22;101877.88;5080719;27;20143;-72
2022/08/11 03:46:08;;;;;;;6.22;3.58;;;;;;;18.00;63.55;101878.88;5075874;27;20051;-72
2022/08/11 03:48:48;;;;;;;7.00;3.92;;;;;;;17.88;63.36;101885.00;5086078;27;20043;-72
2022/08/11 03:51:19;;;;;;;4.70;3.45;;;;;;;18.04;62.93;101877.75;5081787;28;20098;-72
2022/08/11 03:54:15;;;;;;;4.13;3.50;;;;;;;18.00;63.06;101885.06;5086282;28;20048;-72
2022/08/11 03:57:08;;;;;;;6.10;3.83;;;;;;;18.04;62.74;101872.44;5039767;28;20052;-72
2022/08/11 04:00:10;;;;;;;4.75;3.50;;;;;;;17.89;63.86;101884.03;5073454;28;20064;-72
2022/08/11 04:03:01;;;;;;;5.72;3.72;;;;;;;17.81;63.91;101883.69;5064428;28;20045;-71
2022/08/11 04:05:49;;;;;;;5.65;3.83;;;;;;;18.00;62.80;101879.75;5070788;27;20040;-72
2022/08/11 04:08:36;;;;;;;5.63;3.67;;;;;;;17.94;62.99;101884.59;5085313;28;20050;-72
2022/08/11 04:11:25;;;;;;;7.35;3.40;;;;;;;18.05;62.64;101879.47;5076287;27;20044;-72
2022/08/11 04:17:24;;;;;;;9.65;3.72;;;;;;;17.84;63.91;101892.31;5076589;27;20044;-72
2022/08/11 04:20:19;;;;;;;5.53;3.80;;;;;;;17.78;63.99;101898.00;5067121;27;20044;-72
2022/08/11 04:23:10;;;;;;;7.03;3.60;;;;;;;17.76;63.73;101891.94;5044752;28;20045;-72
2022/08/11 04:26:00;;;;;;;5.18;3.72;;;;;;;17.80;63.88;101892.59;5044201;28;20561;-72
2022/08/11 04:28:42;;;;;;;5.43;3.28;;;;;;;17.88;63.98;101890.31;5064366;28;20046;-72
2022/08/11 04:31:24;;;;;;;5.32;3.40;;;;;;;17.77;64.29;101883.03;5085527;28;20044;-72
2022/08/11 04:34:05;;;;;;;6.55;4.28;;;;;;;17.94;64.37;101887.25;5084716;28;20058;-72
2022/08/11 04:40:06;;;;;;;5.57;4.25;;;;;;;17.84;65.31;101896.75;5063700;28;20110;-72
2022/08/11 04:43:21;;;;;;;6.22;3.90;;;;;;;18.07;64.44;101890.81;5056037;28;20051;-72
2022/08/11 04:46:30;;;;;;;5.28;3.75;;;;;;;18.16;64.14;101884.06;5063184;28;20048;-72
2022/08/11 05:02:26;;;;;;;6.20;3.72;;;;;;;18.52;63.57;101886.13;5068332;28;20067;-72
2022/08/11 05:08:40;;;;;;;5.93;3.72;;;;;;;18.75;63.99;101894.25;5080680;27;20434;-72
2022/08/11 05:11:49;;;;;;;13.35;3.65;;;;;;;18.79;64.40;101886.94;5069047;28;20106;-72
2022/08/11 05:37:18;;;;;;;4.85;3.42;;;;;;;21.28;56.55;101890.81;5041932;28;20048;-72
2022/08/11 05:56:42;;;;;;;8.80;2.78;;;;;;;22.74;51.90;101893.94;5031927;28;20049;-71
2022/08/11 05:59:13;;;;;;;10.32;3.67;;;;;;;23.17;51.06;101891.09;5020202;28;20099;-70
2022/08/11 06:01:42;;;;;;;12.20;3.15;;;;;;;23.60;50.33;101892.72;5065791;28;20139;-72
2022/08/11 06:04:16;;;;;;;9.98;3.40;;;;;;;24.03;49.00;101895.94;5082095;27;20044;-71
2022/08/11 06:06:51;;;;;;;12.90;3.55;;;;;;;23.93;48.28;101889.72;5083441;27;20052;-71
2022/08/11 06:09:24;;;;;;;15.45;4.13;;;;;;;24.05;48.88;101891.31;5087143;27;20067;-71
2022/08/11 06:11:52;;;;;;;10.77;3.25;;;;;;;24.73;47.20;101898.41;5080551;28;20053;-72
2022/08/11 06:14:20;;;;;;;7.90;2.70;;;;;;;25.14;45.12;101893.69;5075051;28;20412;-72
2022/08/11 06:16:48;;;;;;;13.05;3.10;;;;;;;25.24;45.15;101897.19;5091463;27;20047;-72
2022/08/11 06:19:16;;;;;;;6.68;2.90;;;;;;;25.53;44.41;101883.72;5106914;28;20120;-71
2022/08/11 06:21:47;;;;;;;5.72;3.13;;;;;;;26.10;43.00;101890.56;5107208;28;20052;-71
2022/08/11 06:24:15;;;;;;;5.40;3.00;;;;;;;25.75;43.77;101883.31;5082591;27;20559;-71
2022/08/11 06:26:48;;;;;;;4.53;2.70;;;;;;;25.88;43.64;101902.59;5069961;28;20044;-71
2022/08/11 06:29:17;;;;;;;7.95;2.50;;;;;;;26.11;43.84;101895.81;5086176;28;20185;-74
2022/08/11 06:31:51;;;;;;;5.53;2.85;;;;;;;25.95;42.91;101895.63;5067474;28;20048;-72
2022/08/11 06:34:31;;;;;;;7.70;3.20;;;;;;;26.03;43.24;101898.41;5074648;28;20502;-72
2022/08/11 06:37:13;;;;;;;7.88;2.80;;;;;;;26.63;42.54;101912.13;5086669;27;20461;-72
2022/08/11 06:39:47;;;;;;;8.93;2.97;;;;;;;26.96;41.55;101914.13;5087563;28;20040;-72
2022/08/11 06:42:25;;;;;;;7.68;2.35;;;;;;;27.35;40.94;101903.75;5086894;28;20082;-72
2022/08/11 06:45:03;;;;;;;12.77;3.40;;;;;;;27.74;40.27;101906.00;5082764;28;20036;-72
2022/08/11 06:47:30;;;;;;;4.18;2.97;;;;;;;27.69;40.34;101914.56;5076394;27;20085;-72
2022/08/11 06:52:46;;;;;;;3.10;2.78;;;;;;;27.90;39.44;101909.56;5088850;27;20533;-72
2022/08/11 07:00:26;;;;;;;7.10;3.15;;;;;;;27.84;39.94;101907.53;5086668;27;20040;-72
2022/08/11 07:00:48;;;;;;;6.38;2.92;;;;;;;26.71;41.50;101909.53;5086117;28;20243;-72
2022/08/11 07:03:19;;;;;;;16.05;3.65;;;;;;;27.20;39.68;101905.34;5087951;28;20101;-72
2022/08/11 07:05:50;;;;;;;5.35;2.92;;;;;;;27.59;38.60;101900.38;5086759;28;20298;-72
2022/08/11 07:17:16;;;;;;;14.77;3.13;;;;;;;29.41;35.56;101897.38;5075235;27;20051;-73
2022/08/11 07:30:57;;;;;;;5.07;2.90;;;;;;;30.11;35.84;101889.28;5064750;28;20082;-72
2022/08/11 07:33:30;;;;;;;6.35;3.05;;;;;;;30.06;33.63;101891.66;5062315;28;20044;-72
2022/08/11 07:35:59;;;;;;;8.57;3.35;;;;;;;30.78;32.90;101892.97;5065285;28;20102;-72
2022/08/11 07:38:43;;;;;;;4.32;3.33;;;;;;;30.77;32.02;101890.47;5065614;28;20117;-72
2022/08/11 07:41:11;;;;;;;5.88;3.30;;;;;;;31.38;31.59;101894.75;5086583;27;20475;-72
2022/08/11 07:43:38;;;;;;;6.57;3.20;;;;;;;31.28;32.00;101888.78;5085137;27;20070;-71
2022/08/11 07:54:22;;;;;;;5.72;3.30;;;;;;;31.85;30.41;101881.63;5083465;27;20096;-70
2022/08/11 07:56:49;;;;;;;7.03;3.10;;;;;;;32.05;30.37;101881.88;5096982;27;20044;-69
2022/08/11 08:18:36;;;;;;;5.35;3.05;;;;;;;32.27;28.31;101885.47;5083658;27;20055;-69
2022/08/11 08:21:11;;;;;;;6.60;3.38;;;;;;;32.73;29.14;101892.19;5083508;27;20048;-69
2022/08/11 08:23:39;;;;;;;6.03;3.00;;;;;;;33.47;27.77;101881.63;5072843;27;20040;-70
2022/08/11 08:26:57;;;;;;;6.78;3.13;;;;;;;33.93;27.42;101880.97;5072744;27;20044;-70
2022/08/11 08:30:46;;;;;;;9.52;2.97;;;;;;;33.25;27.30;101878.16;5078604;28;20044;-70
2022/08/11 08:31:45;;;;;;;7.22;2.90;;;;;;;33.73;28.26;101873.63;5076970;27;20048;-70
2022/08/11 08:34:14;;;;;;;9.73;2.85;;;;;;;34.05;27.18;101873.91;5085164;27;20093;-70
2022/08/11 08:36:42;;;;;;;11.38;3.00;;;;;;;34.59;26.91;101868.34;5070562;28;20539;-70
2022/08/11 08:39:09;;;;;;;6.10;2.88;;;;;;;34.78;25.79;101866.66;5078744;28;20048;-70
2022/08/11 08:41:38;;;;;;;11.02;3.05;;;;;;;35.21;26.58;101872.50;5083673;27;20093;-70
2022/08/11 08:44:09;;;;;;;6.28;2.70;;;;;;;34.31;26.85;101870.41;5076128;27;20065;-71
2022/08/11 08:46:42;;;;;;;11.40;2.88;;;;;;;34.84;27.05;101868.56;5083058;27;20440;-69
2022/08/11 08:49:10;;;;;;;8.15;3.35;;;;;;;34.58;26.43;101866.66;5081936;27;20411;-68
2022/08/11 08:51:40;;;;;;;4.78;3.15;;;;;;;34.83;25.99;101865.00;5084265;27;20097;-68
2022/08/11 08:54:08;;;;;;;11.80;2.85;;;;;;;35.05;26.42;101874.59;5083735;27;20051;-70
2022/08/11 08:56:39;;;;;;;5.55;3.00;;;;;;;35.21;26.12;101867.91;5082677;27;20048;-69
2022/08/11 08:59:06;;;;;;;7.60;3.13;;;;;;;35.07;24.62;101872.50;5081464;27;20105;-69
2022/08/11 09:01:38;;;;;;;9.52;3.10;;;;;;;35.65;23.33;101861.69;5084031;28;20101;-69
2022/08/11 09:04:08;;;;;;;5.22;2.90;;;;;;;35.19;24.68;101856.34;5076100;28;20553;-69
2022/08/11 09:06:38;;;;;;;4.72;3.17;;;;;;;35.98;24.21;101858.75;5073489;28;20040;-69
2022/08/11 09:09:07;;;;;;;5.10;3.03;;;;;;;36.22;23.79;101852.53;5080307;27;20040;-69
2022/08/11 09:11:52;;;;;;;7.53;3.03;;;;;;;36.19;24.99;101852.13;5081843;27;20048;-68
2022/08/11 09:14:23;;;;;;;9.13;3.05;;;;;;;34.70;24.60;101854.94;5073020;27;20080;-68
2022/08/11 09:16:50;;;;;;;5.05;2.92;;;;;;;35.13;23.84;101844.44;5060824;28;20389;-69
2022/08/11 09:19:19;;;;;;;9.13;3.00;;;;;;;35.32;24.40;101845.41;5083152;27;20407;-69
2022/08/11 09:26:58;;;;;;;7.20;3.10;;;;;;;35.33;23.79;101838.88;5082954;27;20557;-69
2022/08/11 09:27:23;;;;;;;5.97;2.60;;;;;;;36.46;23.44;101840.78;5083387;27;20457;-69
2022/08/11 09:29:52;;;;;;;9.35;2.88;;;;;;;36.64;23.50;101850.13;5082919;28;20101;-69
2022/08/11 09:32:20;;;;;;;5.93;2.72;;;;;;;36.97;23.72;101840.53;5081420;27;20052;-69
2022/08/11 09:34:47;;;;;;;7.18;2.83;;;;;;;37.23;20.98;101836.69;5081226;27;20040;-69
2022/08/11 09:45:28;;;;;;;7.15;2.90;;;;;;;37.50;22.02;101818.06;5083506;27;20138;-69
2022/08/11 09:47:55;;;;;;;6.40;3.05;;;;;;;37.56;22.00;101819.88;5083267;27;20093;-69
2022/08/11 09:50:22;;;;;;;5.15;2.65;;;;;;;36.88;20.85;101822.72;5081299;27;20075;-69
2022/08/11 09:52:50;;;;;;;5.32;2.63;;;;;;;36.57;21.00;101815.50;5083269;27;20097;-69
2022/08/11 09:55:17;;;;;;;5.78;3.00;;;;;;;36.70;21.56;101819.16;5081254;27;20093;-69
2022/08/11 10:00:36;;;;;;;6.03;2.60;;;;;;;37.29;21.03;101813.06;5086480;28;20427;-69
2022/08/11 10:03:06;;;;;;;7.85;2.40;;;;;;;37.45;20.66;101805.03;5086371;28;20469;-69
2022/08/11 10:08:18;;;;;;;7.25;2.50;;;;;;;36.72;19.10;101797.91;5067656;28;20542;-69
2022/08/11 10:10:47;;;;;;;4.45;2.45;;;;;;;37.36;18.31;101797.41;5082611;28;20131;-69
2022/08/11 10:13:17;;;;;;;3.78;2.15;;;;;;;36.90;20.08;101786.97;5085185;28;20047;-69
2022/08/11 10:15:45;;;;;;;3.88;2.40;;;;;;;35.47;19.43;101791.44;5086161;28;20728;-69
2022/08/11 10:21:02;;;;;;;5.32;2.22;;;;;;;34.89;20.50;101789.72;5085859;28;20414;-68
2022/08/11 10:33:58;;;;;;;5.10;2.40;;;;;;;34.67;20.00;101779.09;5084924;27;20098;-68
2022/08/11 10:34:38;;;;;;;5.18;2.65;;;;;;;35.67;18.70;101774.13;5087020;27;20098;-69
2022/08/11 10:37:11;;;;;;;6.43;2.80;;;;;;;35.98;20.63;101771.41;5086939;27;20044;-68
2022/08/11 10:39:38;;;;;;;6.38;2.30;;;;;;;35.12;19.01;101760.97;5079146;28;20048;-69
2022/08/11 10:44:53;;;;;;;2.67;2.20;;;;;;;35.33;20.35;101754.34;5083713;27;20159;-68
2022/08/11 10:47:33;;;;;;;6.05;2.30;;;;;;;36.37;19.88;101753.88;5085155;27;20624;-69
2022/08/11 11:01:04;;;;;;;8.02;2.50;;;;;;;37.16;18.73;101756.63;5085467;28;20051;-69
2022/08/11 11:03:34;;;;;;;3.38;2.13;;;;;;;37.49;20.82;101758.94;5081334;28;20898;-69
2022/08/11 11:06:08;;;;;;;3.25;2.22;;;;;;;37.62;17.42;101746.97;5084412;28;20039;-69
2022/08/11 11:08:54;;;;;;;7.03;2.60;;;;;;;38.21;18.12;101741.38;5079724;27;20518;-69
2022/08/11 11:11:21;;;;;;;8.98;2.50;;;;;;;37.78;17.08;101740.81;5055521;28;20044;-69
2022/08/11 11:19:24;;;;;;;4.38;2.17;;;;;;;37.58;18.69;101729.34;5064424;28;20094;-69
2022/08/11 11:21:54;;;;;;;4.00;2.30;;;;;;;37.96;19.23;101733.38;5068536;28;20044;-69
2022/08/11 11:24:36;;;;;;;5.60;2.15;;;;;;;37.78;17.52;101736.16;5085620;28;20094;-69
2022/08/11 11:27:14;;;;;;;4.85;2.45;;;;;;;36.43;18.03;101720.19;5085047;28;20036;-69
2022/08/11 11:30:02;;;;;;;8.93;2.63;;;;;;;36.39;18.57;101714.34;5082529;28;20101;-69
2022/08/11 11:32:37;;;;;;;5.78;2.28;;;;;;;36.07;19.60;101712.72;5085254;28;20039;-69
2022/08/11 11:35:29;;;;;;;7.30;2.45;;;;;;;36.64;20.68;101716.22;5083859;28;20051;-69
2022/08/11 11:37:57;;;;;;;8.10;2.63;;;;;;;35.51;20.45;101707.28;5086090;28;20551;-69
2022/08/11 11:40:24;;;;;;;4.55;2.13;;;;;;;36.22;18.99;101705.06;5083679;28;20090;-69
2022/08/11 11:42:53;;;;;;;5.25;2.45;;;;;;;36.18;19.38;101709.28;5085488;27;20125;-69
2022/08/11 11:45:22;;;;;;;4.32;2.60;;;;;;;36.00;17.60;101712.78;5086385;27;20112;-69
2022/08/11 11:47:51;;;;;;;3.67;2.10;;;;;;;36.63;17.24;101717.28;5067257;27;20060;-69
2022/08/11 11:50:22;;;;;;;6.38;1.98;;;;;;;36.74;17.58;101721.97;5067980;28;20423;-69
2022/08/11 11:52:52;;;;;;;5.80;2.20;;;;;;;35.33;18.36;101712.63;5083539;27;20499;-69
2022/08/11 11:55:19;;;;;;;5.10;2.50;;;;;;;35.15;18.58;101710.59;5084827;27;20054;-69
2022/08/11 12:03:17;;;;;;;7.20;2.00;;;;;;;35.12;20.64;101703.72;5083610;28;20083;-69
2022/08/11 12:05:44;;;;;;;4.80;2.35;;;;;;;35.34;20.35;101687.00;5084491;27;20044;-69
2022/08/11 12:08:15;;;;;;;4.05;2.20;;;;;;;35.75;18.40;101689.28;5083682;27;20044;-69
2022/08/11 12:10:47;;;;;;;5.57;2.30;;;;;;;36.31;18.11;101686.50;5082574;27;20044;-68
2022/08/11 12:16:02;;;;;;;13.77;2.42;;;;;;;36.27;17.56;101679.81;5083332;27;20093;-68
2022/08/11 12:18:31;;;;;;;6.05;1.83;;;;;;;35.91;16.66;101677.81;5083913;28;20056;-69
2022/08/11 12:20:58;;;;;;;6.22;1.88;;;;;;;35.70;18.75;101675.47;5083837;27;20473;-68
2022/08/11 12:29:00;;;;;;;4.55;2.45;;;;;;;35.49;17.69;101663.84;5091917;28;20180;-68
2022/08/11 12:31:28;;;;;;;4.93;2.10;;;;;;;34.66;17.60;101664.91;5080089;28;20044;-68
2022/08/11 12:34:00;;;;;;;7.57;2.03;;;;;;;34.77;17.99;101661.50;5074823;28;20473;-69
2022/08/11 12:36:27;;;;;;;6.70;2.20;;;;;;;34.59;17.91;101656.69;5082606;28;20097;-69
2022/08/11 12:38:55;;;;;;;6.60;2.30;;;;;;;34.19;18.27;101658.69;5084356;28;20125;-69
2022/08/11 12:47:03;;;;;;;4.38;2.58;;;;;;;34.56;20.14;101635.34;5081812;28;20048;-69
2022/08/11 12:52:23;;;;;;;7.68;2.50;;;;;;;36.15;20.03;101641.47;5083389;27;20051;-69
2022/08/11 12:54:58;;;;;;;3.83;2.17;;;;;;;36.54;17.28;101630.13;5081982;27;20044;-69
2022/08/11 13:05:53;;;;;;;4.82;2.00;;;;;;;34.07;19.75;101629.59;5084499;27;20062;-69
2022/08/11 13:08:21;;;;;;;2.70;2.13;;;;;;;34.85;18.44;101630.44;5084214;27;20044;-69
2022/08/11 13:13:37;;;;;;;4.38;2.35;;;;;;;35.09;19.83;101627.78;5071636;28;20071;-69
2022/08/11 13:16:05;;;;;;;9.65;2.25;;;;;;;35.61;19.95;101623.91;5061143;28;20052;-69
2022/08/11 13:18:31;;;;;;;4.10;2.30;;;;;;;36.02;20.44;101619.75;5061352;28;20098;-70
2022/08/11 13:20:58;;;;;;;8.38;2.13;;;;;;;36.10;18.85;101614.03;5062296;28;20102;-69
2022/08/11 13:23:26;;;;;;;7.72;2.53;;;;;;;36.31;17.19;101613.59;5063882;28;20048;-69
2022/08/11 13:25:55;;;;;;;4.22;2.03;;;;;;;35.76;18.38;101606.38;5062389;28;20049;-69
2022/08/11 13:28:23;;;;;;;8.13;2.30;;;;;;;35.74;19.38;101605.72;5062076;28;20048;-69
2022/08/11 13:33:38;;;;;;;6.40;2.38;;;;;;;35.95;17.96;101608.91;5078990;28;20685;-69
2022/08/11 13:36:05;;;;;;;6.18;2.40;;;;;;;36.32;18.60;101609.81;5068796;28;20044;-69
2022/08/11 13:38:32;;;;;;;8.07;2.42;;;;;;;36.24;17.48;101604.63;5066879;28;20060;-69
2022/08/11 13:41:01;;;;;;;5.43;1.95;;;;;;;36.34;19.26;101594.00;5066366;28;20532;-69
2022/08/11 13:43:28;;;;;;;12.45;2.78;;;;;;;36.36;17.46;101589.16;5067657;28;20052;-69
2022/08/11 13:46:17;;;;;;;4.18;2.15;;;;;;;36.54;18.71;101586.41;5059935;28;20053;-69
2022/08/11 13:48:42;;;;;;;4.22;2.20;;;;;;;36.87;18.06;101583.25;5077922;27;20125;-69
2022/08/11 13:53:54;;;;;;;5.05;2.13;;;;;;;36.50;17.68;101576.16;5085994;27;20047;-69
2022/08/11 13:56:23;;;;;;;4.13;2.13;;;;;;;36.19;17.15;101579.06;5086607;27;20089;-69
2022/08/11 13:58:51;;;;;;;5.45;2.13;;;;;;;36.36;17.65;101572.78;5087194;27;20044;-69
2022/08/11 14:01:19;;;;;;;7.72;2.30;;;;;;;35.93;17.95;101561.88;5088477;28;20121;-69
2022/08/11 14:03:47;;;;;;;6.57;2.47;;;;;;;36.30;19.95;101568.22;5086862;28;20101;-69
2022/08/11 14:06:15;;;;;;;3.65;2.10;;;;;;;36.55;16.40;101555.28;5086570;28;20054;-69
2022/08/11 14:08:43;;;;;;;5.10;2.40;;;;;;;35.74;16.98;101557.47;5087470;28;20097;-69
2022/08/11 14:13:58;;;;;;;4.80;2.30;;;;;;;35.07;18.39;101560.91;5066538;28;20193;-69
2022/08/11 14:16:32;;;;;;;4.72;2.30;;;;;;;35.35;18.53;101555.06;5073553;28;20044;-69
2022/08/11 14:19:02;;;;;;;4.40;2.30;;;;;;;35.04;19.63;101555.88;5085008;28;20172;-69
2022/08/11 14:24:18;;;;;;;4.03;2.58;;;;;;;34.47;18.21;101552.22;5077283;27;20411;-69
2022/08/11 14:26:47;;;;;;;8.63;2.70;;;;;;;34.28;18.22;101553.13;5077528;27;20048;-69
2022/08/11 14:29:19;;;;;;;5.68;2.83;;;;;;;33.29;19.51;101546.97;5085435;27;20430;-68
2022/08/11 14:31:48;;;;;;;3.60;2.42;;;;;;;33.26;19.75;101545.47;5087880;27;20052;-68
2022/08/11 14:34:19;;;;;;;6.32;2.25;;;;;;;33.51;20.53;101537.53;5088438;28;20108;-68
2022/08/11 14:36:51;;;;;;;5.80;2.30;;;;;;;33.56;19.29;101543.16;5084183;28;20458;-68
2022/08/11 14:39:19;;;;;;;10.63;2.35;;;;;;;33.22;19.66;101535.25;5066415;28;20036;-68
2022/08/11 14:47:22;;;;;;;3.03;2.20;;;;;;;33.71;20.73;101543.81;5073664;27;20090;-68
2022/08/11 14:49:51;;;;;;;5.82;2.78;;;;;;;33.50;20.69;101530.44;5084385;27;20593;-68
2022/08/11 14:52:19;;;;;;;4.05;2.35;;;;;;;33.32;21.05;101534.81;5087515;27;20180;-69
2022/08/11 14:57:36;;;;;;;4.50;2.40;;;;;;;34.03;20.42;101535.81;5076397;27;20104;-69
2022/08/11 15:00:06;;;;;;;6.53;3.00;;;;;;;34.19;20.67;101536.19;5073606;28;20044;-69
2022/08/11 15:05:21;;;;;;;6.93;2.42;;;;;;;34.14;20.75;101535.19;5086466;27;20109;-68
2022/08/11 15:07:48;;;;;;;4.25;2.22;;;;;;;33.70;19.79;101542.13;5085660;27;20101;-68
2022/08/11 15:10:17;;;;;;;12.70;2.40;;;;;;;33.29;19.62;101533.38;5084715;27;20048;-68
2022/08/11 15:12:44;;;;;;;5.20;2.28;;;;;;;33.55;20.34;101530.66;5087801;27;20672;-68
2022/08/11 15:18:00;;;;;;;6.30;2.30;;;;;;;33.47;20.68;101525.41;5087322;27;20051;-68
2022/08/11 15:25:59;;;;;;;3.95;2.30;;;;;;;33.46;20.44;101512.00;5085235;28;20047;-68
2022/08/11 15:37:29;;;;;;;4.13;2.25;;;;;;;33.24;20.93;101508.69;5002366;28;20674;-69
2022/08/11 15:45:48;;;;;;;4.57;2.15;;;;;;;33.19;20.49;101505.75;5084849;28;20088;-68
2022/08/11 15:48:20;;;;;;;8.43;2.80;;;;;;;33.05;21.05;101504.03;5069969;28;20431;-68
2022/08/11 15:50:52;;;;;;;6.85;2.67;;;;;;;33.24;21.89;101509.53;5064447;28;20040;-69
2022/08/11 15:53:25;;;;;;;5.47;2.70;;;;;;;33.13;21.38;101501.16;5067151;28;20093;-69
2022/08/11 15:55:53;;;;;;;4.50;2.30;;;;;;;33.30;21.40;101493.44;5074837;28;20040;-69
2022/08/11 16:04:14;;;;;;;7.40;2.80;;;;;;;32.67;22.31;101499.16;5086027;28;20693;-68
2022/08/11 16:06:45;;;;;;;5.45;2.70;;;;;;;32.46;21.37;101504.72;5069307;27;20040;-69
2022/08/11 16:09:14;;;;;;;4.70;2.67;;;;;;;32.51;21.95;101491.38;5074174;27;20064;-68
2022/08/11 16:11:41;;;;;;;5.60;2.45;;;;;;;32.60;21.03;101503.75;5080880;27;20105;-69
2022/08/11 16:16:56;;;;;;;6.68;2.65;;;;;;;32.52;22.90;101497.66;5085195;27;20046;-68
2022/08/11 16:19:26;;;;;;;8.10;2.90;;;;;;;32.57;22.44;101496.00;5086583;27;20629;-68
2022/08/11 16:21:55;;;;;;;10.30;3.17;;;;;;;32.60;22.09;101490.19;5084426;27;20077;-69
2022/08/11 16:24:24;;;;;;;8.05;2.67;;;;;;;32.64;22.37;101491.44;5085339;27;20105;-69
2022/08/11 16:26:54;;;;;;;4.50;2.47;;;;;;;32.49;22.06;101485.31;5083249;28;20048;-69
2022/08/11 16:29:23;;;;;;;3.78;2.17;;;;;;;32.42;22.25;101487.19;5084080;27;20048;-69
2022/08/11 16:40:08;;;;;;;11.10;2.80;;;;;;;32.28;22.16;101482.75;5068888;27;20154;-69